Terminal Aerodrome Forecast
Issued by NWS Cleveland, OH

Home | Current Version | Previous Version | Graphics & Text | Print | Product List | Glossary On
Versions: 1 2 3 4 5 6 7 8 9 10 11 12 13 14 15
657
FTUS41 KCLE 122159 AAA
TAFTOL
TAF AMD
KTOL 122159Z 1222/1318 29018G28KT P6SM BKN050
      TEMPO 1222/1301 4SM -SHSN OVC025
     FM130100 30015G25KT P6SM BKN035
     FM130900 30012G20KT P6SM BKN035=

USA.gov is the U.S. government's official web portal to all federal, state and local government web resources and services.